Time;durP1;ratioP1;P1;durP2;ratioP2;P2;SDS_P1;SDS_P2;PMS_P1;PMS_P2;Temp;Humidity;BMP_temperature;BMP_pressure;BME280_temperature;BME280_humidity;BME280_pressure;Samples;Min_cycle;Max_cycle;Signal;HPM_P1;HPM_P2
2023/11/23 09:26:16;;;;;;;;;;;;;;;;;;132233;1312;544394;-76
2023/11/23 09:29:19;;;;;;;;;;;;;;;;;;135859;1288;22532;-75
2023/11/23 09:32:22;;;;;;;;;;;;;;;;;;136610;1283;23248;-76
2023/11/23 09:35:25;;;;;;;;;;;;;;;;;;136405;1283;22546;-75
2023/11/23 09:38:27;;;;;;;;;;;;;;;;;;136632;1279;228012;-75
2023/11/23 09:41:34;;;;;;;;;;;;;;;;;;136989;1279;22362;-76
2023/11/23 09:44:37;;;;;;;;;;;;;;;;;;136992;1279;22295;-76
2023/11/23 09:47:39;;;;;;;;;;;;;;;;;;136425;1279;22522;-76
2023/11/23 09:50:43;;;;;;;;;;;;;;;;;;137039;1279;22358;-76
2023/11/23 09:53:46;;;;;;;;;;;;;;;;;;136980;1279;22830;-76
2023/11/23 09:56:49;;;;;;;;;;;;;;;;;;137021;1279;22682;-77
2023/11/23 09:59:51;;;;;;;;;;;;;;;;;;136560;1279;22891;-76
2023/11/23 10:02:56;;;;;;;;;;;;;;;;;;136698;1279;22547;-76
2023/11/23 10:05:59;;;;;;;;;;;;;;;;;;136706;1279;22592;-76
2023/11/23 10:09:02;;;;;;;;;;;;;;;;;;136333;1279;22589;-75
2023/11/23 10:12:04;;;;;;;;;;;;;;;;;;136996;1279;22507;-75
2023/11/23 10:15:07;;;;;;;;;;;;;;;;;;137015;1279;22525;-76
2023/11/23 10:18:10;;;;;;;;;;;;;;;;;;137046;1279;22374;-75
2023/11/23 10:21:12;;;;;;;;;;;;;;;;;;137004;1279;22346;-76
2023/11/23 10:24:16;;;;;;;;;;;;;;;;;;137004;1279;22456;-76
2023/11/23 10:27:19;;;;;;;;;;;;;;;;;;136361;1279;22515;-75
2023/11/23 10:30:22;;;;;;;;;;;;;;;;;;137043;1279;22347;-74
2023/11/23 10:33:29;;;;;;;;;;;;;;;;;;136976;1279;22323;-75
2023/11/23 10:36:32;;;;;;;;;;;;;;;;;;136974;1279;22325;-75
2023/11/23 10:39:37;;;;;;;;;;;;;;;;;;136614;1279;22595;-77
2023/11/23 10:42:39;;;;;;;;;;;;;;;;;;137010;1279;22328;-76
2023/11/23 10:45:44;;;;;;;;;;;;;;;;;;136982;1272;22309;-77
2023/11/23 10:48:46;;;;;;;;;;;;;;;;;;137048;1279;22672;-76
2023/11/23 10:51:49;;;;;;;;;;;;;;;;;;136889;1279;22385;-76
2023/11/23 10:54:51;;;;;;;;;;;;;;;;;;137009;1279;22402;-77
2023/11/23 10:57:55;;;;;;;;;;;;;;;;;;137000;1279;22336;-76
2023/11/23 11:00:58;;;;;;;;;;;;;;;;;;136980;1279;22346;-76
2023/11/23 11:04:01;;;;;;;;;;;;;;;;;;136952;1279;22806;-75
2023/11/23 11:07:05;;;;;;;;;;;;;;;;;;136990;1279;22297;-76
2023/11/23 11:10:08;;;;;;;;;;;;;;;;;;136937;1279;22541;-75
2023/11/23 11:13:10;;;;;;;;;;;;;;;;;;137010;1279;22331;-76
2023/11/23 11:16:13;;;;;;;;;;;;;;;;;;136960;1279;22380;-76
2023/11/23 11:19:16;;;;;;;;;;;;;;;;;;136695;1279;22529;-76
2023/11/23 11:22:18;;;;;;;;;;;;;;;;;;137018;1279;22279;-77
2023/11/23 11:25:21;;;;;;;;;;;;;;;;;;136949;1279;22441;-76
2023/11/23 11:28:24;;;;;;;;;;;;;;;;;;136950;1279;22389;-77
2023/11/23 11:31:27;;;;;;;;;;;;;;;;;;136983;1259;22311;-76
2023/11/23 11:34:29;;;;;;;;;;;;;;;;;;136950;1279;22266;-76
2023/11/23 11:37:32;;;;;;;;;;;;;;;;;;136947;1279;22280;-76
2023/11/23 11:40:35;;;;;;;;;;;;;;;;;;136959;1279;22363;-75
2023/11/23 11:43:37;;;;;;;;;;;;;;;;;;136964;1279;22389;-77
2023/11/23 11:46:41;;;;;;;;;;;;;;;;;;136971;1279;22286;-77
2023/11/23 11:49:43;;;;;;;;;;;;;;;;;;136957;1279;23294;-76
2023/11/23 11:52:46;;;;;;;;;;;;;;;;;;137020;1279;22896;-76
2023/11/23 11:55:50;;;;;;;;;;;;;;;;;;136982;1279;23132;-77
2023/11/23 11:58:53;;;;;;;;;;;;;;;;;;136974;1279;22300;-75
2023/11/23 12:01:55;;;;;;;;;;;;;;;;;;136972;1279;22984;-76
2023/11/23 12:04:58;;;;;;;;;;;;;;;;;;136963;1279;22370;-77
2023/11/23 12:08:00;;;;;;;;;;;;;;;;;;136969;1279;22326;-76
2023/11/23 12:11:05;;;;;;;;;;;;;;;;;;136987;1279;22758;-76
2023/11/23 12:14:07;;;;;;;;;;;;;;;;;;136996;1279;22298;-76
2023/11/23 12:17:11;;;;;;;;;;;;;;;;;;136909;1279;22286;-76
2023/11/23 12:20:13;;;;;;;;;;;;;;;;;;136966;1279;22385;-76
2023/11/23 12:23:19;;;;;;;;;;;;;;;;;;136566;1277;22949;-76
2023/11/23 12:26:21;;;;;;;;;;;;;;;;;;136813;1277;25285;-76
2023/11/23 12:29:24;;;;;;;;;;;;;;;;;;137330;1274;23081;-76
2023/11/23 12:32:27;;;;;;;;;;;;;;;;;;137421;1274;22342;-76
2023/11/23 12:35:29;;;;;;;;;;;;;;;;;;137475;1274;22336;-75
2023/11/23 12:38:32;;;;;;;;;;;;;;;;;;137492;1274;22344;-74
2023/11/23 12:41:34;;;;;;;;;;;;;;;;;;137372;1272;22288;-74
2023/11/23 12:44:37;;;;;;;;;;;;;;;;;;137352;1274;22275;-75
2023/11/23 12:47:40;;;;;;;;;;;;;;;;;;137303;1274;22359;-75
2023/11/23 12:50:43;;;;;;;;;;;;;;;;;;137340;1274;22422;-75
2023/11/23 12:53:45;;;;;;;;;;;;;;;;;;137325;1272;22406;-75
2023/11/23 12:56:48;;;;;;;;;;;;;;;;;;137293;1274;22296;-75
2023/11/23 12:59:51;;;;;;;;;;;;;;;;;;137329;1274;22459;-75
2023/11/23 13:02:53;;;;;;;;;;;;;;;;;;137318;1274;22354;-76
2023/11/23 13:05:56;;;;;;;;;;;;;;;;;;137309;1274;22305;-75
2023/11/23 13:08:59;;;;;;;;;;;;;;;;;;137265;1274;22336;-75
2023/11/23 13:12:03;;;;;;;;;;;;;;;;;;137271;1274;22346;-75
2023/11/23 13:15:07;;;;;;;;;;;;;;;;;;137305;1266;22334;-75
2023/11/23 13:18:10;;;;;;;;;;;;;;;;;;137260;1274;22915;-77
2023/11/23 13:21:12;;;;;;;;;;;;;;;;;;137327;1274;22824;-77
2023/11/23 13:24:15;;;;;;;;;;;;;;;;;;137224;1274;23205;-77
2023/11/23 13:27:18;;;;;;;;;;;;;;;;;;137260;1274;22393;-77
2023/11/23 13:30:21;;;;;;;;;;;;;;;;;;137247;1274;22820;-77
2023/11/23 13:33:24;;;;;;;;;;;;;;;;;;137224;1274;22409;-77
2023/11/23 13:36:28;;;;;;;;;;;;;;;;;;137259;1274;22796;-77
2023/11/23 13:39:31;;;;;;;;;;;;;;;;;;137274;1263;22305;-77
2023/11/23 13:42:35;;;;;;;;;;;;;;;;;;137287;1274;22860;-77
2023/11/23 13:45:38;;;;;;;;;;;;;;;;;;137327;1274;22335;-76
2023/11/23 13:48:42;;;;;;;;;;;;;;;;;;137281;1274;22846;-77
2023/11/23 13:51:45;;;;;;;;;;;;;;;;;;137276;1274;22718;-77
2023/11/23 13:54:48;;;;;;;;;;;;;;;;;;137319;1274;22485;-76
2023/11/23 13:57:50;;;;;;;;;;;;;;;;;;137313;1274;22350;-77
2023/11/23 14:00:53;;;;;;;;;;;;;;;;;;137311;1274;22299;-75
2023/11/23 14:03:56;;;;;;;;;;;;;;;;;;137259;1274;23086;-76
2023/11/23 14:06:59;;;;;;;;;;;;;;;;;;137277;1274;22302;-73
2023/11/23 14:10:01;;;;;;;;;;;;;;;;;;137234;1270;22299;-75
2023/11/23 14:13:06;;;;;;;;;;;;;;;;;;137274;1270;22284;-77
2023/11/23 14:16:09;;;;;;;;;;;;;;;;;;137319;1274;23110;-76
2023/11/23 14:19:15;;;;;;;;;;;;;;;;;;137240;1274;22329;-75
2023/11/23 14:22:18;;;;;;;;;;;;;;;;;;137263;1274;22459;-76
2023/11/23 14:25:22;;;;;;;;;;;;;;;;;;137268;1274;22423;-76
2023/11/23 14:28:25;;;;;;;;;;;;;;;;;;137253;1274;22722;-76
2023/11/23 14:31:27;;;;;;;;;;;;;;;;;;137228;1274;22418;-78
2023/11/23 14:34:31;;;;;;;;;;;;;;;;;;137278;1269;22521;-77
2023/11/23 14:37:34;;;;;;;;;;;;;;;;;;137274;1274;22259;-77
2023/11/23 14:40:37;;;;;;;;;;;;;;;;;;137328;1274;22335;-77
2023/11/23 14:43:40;;;;;;;;;;;;;;;;;;137133;1274;22496;-76
2023/11/23 14:46:43;;;;;;;;;;;;;;;;;;137061;1274;25243;-74
2023/11/23 14:49:46;;;;;;;;;;;;;;;;;;137363;1274;22501;-76
2023/11/23 14:52:48;;;;;;;;;;;;;;;;;;137021;1274;22491;-76
2023/11/23 14:55:51;;;;;;;;;;;;;;;;;;137124;1274;22617;-76
2023/11/23 14:58:54;;;;;;;;;;;;;;;;;;137443;1274;22264;-75
2023/11/23 15:01:56;;;;;;;;;;;;;;;;;;137494;1274;22358;-77
2023/11/23 15:04:59;;;;;;;;;;;;;;;;;;137542;1274;22349;-76
2023/11/23 15:08:03;;;;;;;;;;;;;;;;;;137478;1274;22345;-76
2023/11/23 15:11:05;;;;;;;;;;;;;;;;;;137412;1269;22286;-75
2023/11/23 15:14:08;;;;;;;;;;;;;;;;;;137392;1274;22397;-76
2023/11/23 15:17:10;;;;;;;;;;;;;;;;;;137394;1274;22359;-77
2023/11/23 15:20:13;;;;;;;;;;;;;;;;;;137376;1274;22387;-76
2023/11/23 15:23:17;;;;;;;;;;;;;;;;;;137406;1274;22432;-76
2023/11/23 15:26:20;;;;;;;;;;;;;;;;;;137417;1274;22411;-77
2023/11/23 15:29:23;;;;;;;;;;;;;;;;;;137354;1274;22346;-78
2023/11/23 15:32:27;;;;;;;;;;;;;;;;;;137356;1274;22333;-77
2023/11/23 15:35:30;;;;;;;;;;;;;;;;;;137394;1274;22398;-76
2023/11/23 15:38:34;;;;;;;;;;;;;;;;;;137396;1274;22756;-76
2023/11/23 15:41:36;;;;;;;;;;;;;;;;;;137348;1274;22290;-77
2023/11/23 15:44:41;;;;;;;;;;;;;;;;;;137388;1274;22759;-77
2023/11/23 15:47:43;;;;;;;;;;;;;;;;;;137475;1274;22357;-77
2023/11/23 15:50:46;;;;;;;;;;;;;;;;;;137419;1274;22832;-76
2023/11/23 15:53:49;;;;;;;;;;;;;;;;;;137408;1274;22472;-75
2023/11/23 15:56:52;;;;;;;;;;;;;;;;;;137420;1273;22339;-76
2023/11/23 15:59:54;;;;;;;;;;;;;;;;;;137380;1274;22295;-77
2023/11/23 16:02:57;;;;;;;;;;;;;;;;;;137402;1274;22764;-76
2023/11/23 16:06:00;;;;;;;;;;;;;;;;;;137442;1274;22401;-76
2023/11/23 16:09:03;;;;;;;;;;;;;;;;;;137385;1274;22818;-76
2023/11/23 16:12:06;;;;;;;;;;;;;;;;;;137411;1270;22298;-76
2023/11/23 16:15:10;;;;;;;;;;;;;;;;;;137265;1274;22856;-76
2023/11/23 16:18:13;;;;;;;;;;;;;;;;;;137434;1273;22289;-78
2023/11/23 16:21:17;;;;;;;;;;;;;;;;;;137373;1274;22879;-76
2023/11/23 16:24:20;;;;;;;;;;;;;;;;;;137396;1274;22437;-76
2023/11/23 16:27:22;;;;;;;;;;;;;;;;;;137478;1269;22301;-76
2023/11/23 16:30:25;;;;;;;;;;;;;;;;;;137443;1274;22888;-77
2023/11/23 16:33:28;;;;;;;;;;;;;;;;;;137390;1274;22295;-76
2023/11/23 16:36:30;;;;;;;;;;;;;;;;;;137422;1274;22357;-77
2023/11/23 16:39:34;;;;;;;;;;;;;;;;;;137412;1274;22349;-76
2023/11/23 16:42:36;;;;;;;;;;;;;;;;;;137395;1274;22375;-76
2023/11/23 16:45:39;;;;;;;;;;;;;;;;;;137390;1274;22342;-76
2023/11/23 16:48:42;;;;;;;;;;;;;;;;;;137209;1274;22577;-76
2023/11/23 16:51:44;;;;;;;;;;;;;;;;;;137406;1274;22274;-77
2023/11/23 16:54:46;;;;;;;;;;;;;;;;;;137324;1271;22517;-77
2023/11/23 16:57:50;;;;;;;;;;;;;;;;;;137462;1274;22963;-77
2023/11/23 17:00:54;;;;;;;;;;;;;;;;;;137309;1274;22501;-77
2023/11/23 17:03:57;;;;;;;;;;;;;;;;;;137460;1274;22313;-77
2023/11/23 17:06:59;;;;;;;;;;;;;;;;;;137435;1274;22332;-77
2023/11/23 17:10:02;;;;;;;;;;;;;;;;;;137427;1274;22358;-76
2023/11/23 17:13:06;;;;;;;;;;;;;;;;;;137429;1272;22288;-77
2023/11/23 17:16:09;;;;;;;;;;;;;;;;;;137442;1274;22419;-77
2023/11/23 17:19:12;;;;;;;;;;;;;;;;;;137441;1262;22351;-77
2023/11/23 17:22:15;;;;;;;;;;;;;;;;;;137224;1274;22532;-77
2023/11/23 17:25:17;;;;;;;;;;;;;;;;;;137242;1274;22514;-77
2023/11/23 17:28:21;;;;;;;;;;;;;;;;;;137273;1274;22506;-77
2023/11/23 17:31:23;;;;;;;;;;;;;;;;;;137391;1274;22504;-76
2023/11/23 17:34:27;;;;;;;;;;;;;;;;;;137529;1271;22498;-76
2023/11/23 17:37:29;;;;;;;;;;;;;;;;;;137559;1274;22386;-76
2023/11/23 17:40:32;;;;;;;;;;;;;;;;;;137482;1274;22363;-76
2023/11/23 17:43:34;;;;;;;;;;;;;;;;;;137428;1274;22752;-76
2023/11/23 17:46:38;;;;;;;;;;;;;;;;;;137469;1272;22443;-76
2023/11/23 17:49:40;;;;;;;;;;;;;;;;;;137410;1274;22837;-76
2023/11/23 17:52:43;;;;;;;;;;;;;;;;;;137417;1274;22342;-77
2023/11/23 17:55:46;;;;;;;;;;;;;;;;;;137373;1274;22409;-77
2023/11/23 17:58:48;;;;;;;;;;;;;;;;;;137403;1274;22757;-76
2023/11/23 18:01:51;;;;;;;;;;;;;;;;;;137444;1274;22366;-76
2023/11/23 18:04:55;;;;;;;;;;;;;;;;;;137402;1274;22394;-76
2023/11/23 18:07:58;;;;;;;;;;;;;;;;;;137406;1274;22362;-77
2023/11/23 18:11:00;;;;;;;;;;;;;;;;;;137429;1274;22330;-77
2023/11/23 18:14:03;;;;;;;;;;;;;;;;;;137397;1274;22325;-77
2023/11/23 18:17:06;;;;;;;;;;;;;;;;;;137385;1274;22785;-77
2023/11/23 18:20:11;;;;;;;;;;;;;;;;;;137408;1274;22872;-77
2023/11/23 18:23:14;;;;;;;;;;;;;;;;;;137400;1274;22912;-76
2023/11/23 18:26:16;;;;;;;;;;;;;;;;;;137396;1274;22850;-76
2023/11/23 18:29:19;;;;;;;;;;;;;;;;;;137419;1274;22324;-76
2023/11/23 18:32:21;;;;;;;;;;;;;;;;;;137453;1274;22480;-76
2023/11/23 18:35:25;;;;;;;;;;;;;;;;;;137377;1274;22360;-76
2023/11/23 18:38:28;;;;;;;;;;;;;;;;;;137372;1274;22345;-77
2023/11/23 18:41:30;;;;;;;;;;;;;;;;;;137390;1274;22278;-76
2023/11/23 18:44:33;;;;;;;;;;;;;;;;;;137406;1274;22351;-75
2023/11/23 18:47:35;;;;;;;;;;;;;;;;;;137394;1274;22341;-76
2023/11/23 18:50:38;;;;;;;;;;;;;;;;;;137458;1274;22346;-76
2023/11/23 18:53:40;;;;;;;;;;;;;;;;;;137395;1274;22391;-76
2023/11/23 18:56:44;;;;;;;;;;;;;;;;;;137385;1273;22339;-76
2023/11/23 18:59:46;;;;;;;;;;;;;;;;;;137429;1274;22499;-76
2023/11/23 19:02:51;;;;;;;;;;;;;;;;;;137346;1274;22410;-76
2023/11/23 19:05:57;;;;;;;;;;;;;;;;;;137355;1274;23099;-76
2023/11/23 19:09:00;;;;;;;;;;;;;;;;;;137418;1274;22329;-76
2023/11/23 19:12:04;;;;;;;;;;;;;;;;;;137382;1274;22563;-77
2023/11/23 19:15:07;;;;;;;;;;;;;;;;;;137477;1274;22918;-77
2023/11/23 19:18:10;;;;;;;;;;;;;;;;;;137510;1274;22821;-77
2023/11/23 19:21:12;;;;;;;;;;;;;;;;;;137475;1274;22474;-76
2023/11/23 19:24:15;;;;;;;;;;;;;;;;;;137448;1274;22421;-76
2023/11/23 19:27:18;;;;;;;;;;;;;;;;;;137414;1274;22659;-76
2023/11/23 19:30:23;;;;;;;;;;;;;;;;;;137461;1274;22690;-76
2023/11/23 19:33:26;;;;;;;;;;;;;;;;;;137425;1274;22413;-77
2023/11/23 19:36:28;;;;;;;;;;;;;;;;;;137437;1274;22390;-76
2023/11/23 19:39:31;;;;;;;;;;;;;;;;;;137453;1274;22334;-76
2023/11/23 19:42:33;;;;;;;;;;;;;;;;;;137422;1274;22844;-77
2023/11/23 19:45:36;;;;;;;;;;;;;;;;;;137468;1274;22370;-77
2023/11/23 19:48:38;;;;;;;;;;;;;;;;;;137298;1274;22581;-76
2023/11/23 19:51:43;;;;;;;;;;;;;;;;;;137323;1274;24853;-76
2023/11/23 19:54:45;;;;;;;;;;;;;;;;;;137390;1274;22534;-77
2023/11/23 19:57:53;;;;;;;;;;;;;;;;;;137328;1274;22648;-76
2023/11/23 20:00:56;;;;;;;;;;;;;;;;;;137380;1274;23045;-77
2023/11/23 20:03:58;;;;;;;;;;;;;;;;;;137329;1274;22521;-76
2023/11/23 20:07:03;;;;;;;;;;;;;;;;;;137590;1274;22338;-76
2023/11/23 20:10:06;;;;;;;;;;;;;;;;;;137404;1274;22538;-76
2023/11/23 20:13:09;;;;;;;;;;;;;;;;;;137510;1274;22766;-77
2023/11/23 20:16:12;;;;;;;;;;;;;;;;;;137446;1273;22512;-77
2023/11/23 20:19:14;;;;;;;;;;;;;;;;;;137462;1274;22971;-76
2023/11/23 20:22:17;;;;;;;;;;;;;;;;;;137475;1274;22490;-75
2023/11/23 20:25:20;;;;;;;;;;;;;;;;;;137445;1274;22961;-76
2023/11/23 20:28:23;;;;;;;;;;;;;;;;;;137403;1274;22400;-76
2023/11/23 20:31:25;;;;;;;;;;;;;;;;;;137445;1274;22318;-76
2023/11/23 20:34:28;;;;;;;;;;;;;;;;;;137447;1274;22701;-76
2023/11/23 20:37:31;;;;;;;;;;;;;;;;;;137441;1274;22297;-76
2023/11/23 20:40:33;;;;;;;;;;;;;;;;;;137442;1274;22519;-77
2023/11/23 20:43:37;;;;;;;;;;;;;;;;;;137441;1274;22493;-77
2023/11/23 20:46:40;;;;;;;;;;;;;;;;;;137483;1274;22445;-77
2023/11/23 20:49:42;;;;;;;;;;;;;;;;;;137468;1274;23153;-77
2023/11/23 20:52:45;;;;;;;;;;;;;;;;;;137496;1274;22414;-77
2023/11/23 20:55:47;;;;;;;;;;;;;;;;;;137436;1274;22493;-77
2023/11/23 20:58:50;;;;;;;;;;;;;;;;;;137367;1274;22985;-77
2023/11/23 21:01:53;;;;;;;;;;;;;;;;;;137417;1274;22321;-77
2023/11/23 21:04:56;;;;;;;;;;;;;;;;;;137460;1274;22319;-76
2023/11/23 21:07:59;;;;;;;;;;;;;;;;;;137425;1275;23249;-76
2023/11/23 21:11:01;;;;;;;;;;;;;;;;;;137444;1274;22802;-76
2023/11/23 21:14:07;;;;;;;;;;;;;;;;;;137434;1274;22348;-76
2023/11/23 21:17:10;;;;;;;;;;;;;;;;;;137411;1275;22292;-77
2023/11/23 21:20:14;;;;;;;;;;;;;;;;;;137438;1274;22874;-77
2023/11/23 21:23:16;;;;;;;;;;;;;;;;;;137451;1274;22466;-77
2023/11/23 21:26:19;;;;;;;;;;;;;;;;;;137233;1275;22845;-76
2023/11/23 21:29:21;;;;;;;;;;;;;;;;;;137201;1276;22893;-76
2023/11/23 21:32:24;;;;;;;;;;;;;;;;;;137198;1275;22379;-76
2023/11/23 21:35:32;;;;;;;;;;;;;;;;;;137234;1275;23231;-76
2023/11/23 21:38:34;;;;;;;;;;;;;;;;;;137049;1275;197544;-76
2023/11/23 21:41:37;;;;;;;;;;;;;;;;;;137191;1275;22348;-77
2023/11/23 21:44:39;;;;;;;;;;;;;;;;;;137262;1275;22272;-76
2023/11/23 21:47:42;;;;;;;;;;;;;;;;;;137275;1275;22920;-77
2023/11/23 21:50:44;;;;;;;;;;;;;;;;;;137242;1275;22346;-77
2023/11/23 21:53:49;;;;;;;;;;;;;;;;;;137169;1275;22602;-76
2023/11/23 21:56:53;;;;;;;;;;;;;;;;;;137292;1275;22352;-77
2023/11/23 21:59:55;;;;;;;;;;;;;;;;;;137312;1275;22363;-76
2023/11/23 22:02:58;;;;;;;;;;;;;;;;;;137251;1275;22550;-77
2023/11/23 22:06:04;;;;;;;;;;;;;;;;;;137369;1275;22780;-77
2023/11/23 22:09:07;;;;;;;;;;;;;;;;;;137274;1276;22333;-76
2023/11/23 22:12:09;;;;;;;;;;;;;;;;;;137251;1275;22720;-77
2023/11/23 22:15:12;;;;;;;;;;;;;;;;;;137299;1275;22684;-77
2023/11/23 22:18:15;;;;;;;;;;;;;;;;;;137315;1275;22399;-76
2023/11/23 22:21:17;;;;;;;;;;;;;;;;;;137302;1275;22270;-77
2023/11/23 22:24:20;;;;;;;;;;;;;;;;;;137354;1274;23042;-77
2023/11/23 22:27:22;;;;;;;;;;;;;;;;;;137392;1261;22578;-77
2023/11/23 22:30:25;;;;;;;;;;;;;;;;;;137409;1274;22982;-77
2023/11/23 22:33:27;;;;;;;;;;;;;;;;;;137505;1274;22385;-77
2023/11/23 22:36:30;;;;;;;;;;;;;;;;;;137706;1274;22348;-77
2023/11/23 22:39:32;;;;;;;;;;;;;;;;;;137660;1274;22343;-77
2023/11/23 22:42:35;;;;;;;;;;;;;;;;;;137551;1274;22387;-77
2023/11/23 22:45:38;;;;;;;;;;;;;;;;;;137543;1274;22361;-77
2023/11/23 22:48:41;;;;;;;;;;;;;;;;;;137467;1273;22397;-77
2023/11/23 22:51:44;;;;;;;;;;;;;;;;;;137480;1273;22450;-76
2023/11/23 22:54:46;;;;;;;;;;;;;;;;;;137468;1273;22444;-77
2023/11/23 22:57:49;;;;;;;;;;;;;;;;;;137351;1274;23033;-77
2023/11/23 23:00:52;;;;;;;;;;;;;;;;;;137392;1274;22532;-77
2023/11/23 23:03:55;;;;;;;;;;;;;;;;;;137528;1274;22509;-78
2023/11/23 23:06:57;;;;;;;;;;;;;;;;;;137526;1274;22533;-78
2023/11/23 23:10:02;;;;;;;;;;;;;;;;;;137504;1274;22511;-79
2023/11/23 23:13:05;;;;;;;;;;;;;;;;;;137447;1274;23130;-78
2023/11/23 23:16:07;;;;;;;;;;;;;;;;;;137424;1273;22945;-78
2023/11/23 23:19:13;;;;;;;;;;;;;;;;;;137428;1274;22572;-78
2023/11/23 23:22:15;;;;;;;;;;;;;;;;;;137525;1273;22359;-77
2023/11/23 23:25:18;;;;;;;;;;;;;;;;;;137344;1274;23085;-78
2023/11/23 23:28:20;;;;;;;;;;;;;;;;;;137499;1273;22370;-78
2023/11/23 23:31:23;;;;;;;;;;;;;;;;;;137463;1273;22340;-78
2023/11/23 23:34:26;;;;;;;;;;;;;;;;;;137451;1274;22540;-78
2023/11/23 23:37:28;;;;;;;;;;;;;;;;;;137423;1273;22545;-77
2023/11/23 23:40:31;;;;;;;;;;;;;;;;;;137485;1274;22804;-78
2023/11/23 23:43:34;;;;;;;;;;;;;;;;;;137448;1274;22794;-78
2023/11/23 23:46:36;;;;;;;;;;;;;;;;;;137472;1274;22403;-79
2023/11/23 23:49:39;;;;;;;;;;;;;;;;;;137494;1274;22457;-79
2023/11/23 23:52:42;;;;;;;;;;;;;;;;;;137474;1274;22854;-79
2023/11/23 23:55:45;;;;;;;;;;;;;;;;;;137472;1274;22412;-82
2023/11/23 23:58:48;;;;;;;;;;;;;;;;;;137463;1273;22523;-83
